Time;durP1;ratioP1;P1;durP2;ratioP2;P2;SDS_P1;SDS_P2;PMS_P1;PMS_P2;Temp;Humidity;BMP_temperature;BMP_pressure;BME280_temperature;BME280_humidity;BME280_pressure;Samples;Min_cycle;Max_cycle;Signal;HPM_P1;HPM_P2
2022/10/15 00:00:48;;;;;;;3.47;1.20;;;15.10;99.90;;;;;;4997085;28;20454;-84
2022/10/15 00:03:15;;;;;;;1.53;1.23;;;15.10;99.90;;;;;;4997900;28;20468;-84
2022/10/15 00:05:42;;;;;;;3.77;1.53;;;15.10;99.90;;;;;;4998326;28;20823;-84
2022/10/15 00:08:10;;;;;;;2.73;1.00;;;15.10;99.90;;;;;;5005242;28;20463;-84
2022/10/15 00:10:38;;;;;;;3.40;1.13;;;15.20;99.90;;;;;;5017195;28;20465;-85
2022/10/15 00:13:06;;;;;;;1.97;1.07;;;15.20;99.90;;;;;;5017165;28;20480;-84
2022/10/15 00:15:32;;;;;;;1.80;1.20;;;15.20;99.90;;;;;;5007021;28;20435;-84
2022/10/15 00:17:59;;;;;;;2.20;1.20;;;15.20;99.90;;;;;;5015737;28;20424;-84
2022/10/15 00:20:26;;;;;;;1.87;1.03;;;15.20;99.90;;;;;;5009052;28;20452;-84
2022/10/15 00:22:52;;;;;;;3.40;1.53;;;15.20;99.90;;;;;;5010010;28;20978;-84
2022/10/15 00:25:19;;;;;;;1.50;1.20;;;15.20;99.90;;;;;;5002372;28;20454;-83
2022/10/15 00:27:47;;;;;;;2.20;1.07;;;15.20;99.90;;;;;;4998890;28;20448;-83
2022/10/15 00:30:14;;;;;;;3.00;1.13;;;15.20;99.90;;;;;;4997666;28;20451;-84
2022/10/15 00:32:41;;;;;;;1.80;0.90;;;15.30;99.90;;;;;;4994852;28;20502;-85
2022/10/15 00:35:08;;;;;;;2.03;1.20;;;15.30;99.90;;;;;;4999483;28;20452;-84
2022/10/15 00:37:34;;;;;;;1.30;0.80;;;15.30;99.90;;;;;;4997913;28;20473;-84
2022/10/15 00:40:01;;;;;;;2.10;1.00;;;15.30;99.90;;;;;;4995451;28;20455;-85
2022/10/15 00:42:28;;;;;;;1.43;0.70;;;15.30;99.90;;;;;;4994686;28;20474;-84
2022/10/15 00:44:58;;;;;;;2.13;0.73;;;15.30;99.90;;;;;;4994738;28;20448;-84
2022/10/15 00:47:38;;;;;;;4.43;0.90;;;15.30;99.90;;;;;;4995198;28;20451;-84
2022/10/15 00:50:08;;;;;;;1.63;0.63;;;15.40;99.90;;;;;;4997043;28;20904;-83
2022/10/15 00:52:40;;;;;;;1.17;0.57;;;15.40;99.90;;;;;;4997457;28;20506;-83
2022/10/15 00:55:12;;;;;;;3.13;0.70;;;15.40;99.90;;;;;;4995645;28;20450;-83
2022/10/15 00:57:40;;;;;;;2.33;0.50;;;15.40;99.90;;;;;;4995412;28;20452;-83
2022/10/15 01:00:10;;;;;;;1.63;0.60;;;15.40;99.90;;;;;;4995339;28;20466;-84
2022/10/15 01:02:37;;;;;;;1.20;0.60;;;15.40;99.90;;;;;;4996718;28;20469;-84
2022/10/15 01:05:05;;;;;;;2.57;0.87;;;15.40;99.90;;;;;;4997488;28;20443;-83
2022/10/15 01:07:32;;;;;;;1.50;0.70;;;15.40;99.90;;;;;;4996992;28;20876;-85
2022/10/15 01:09:59;;;;;;;1.13;0.60;;;15.40;99.90;;;;;;4999402;28;20939;-83
2022/10/15 01:12:36;;;;;;;1.53;0.60;;;15.50;99.90;;;;;;5008234;28;20587;-84
2022/10/15 01:15:09;;;;;;;4.00;0.60;;;15.50;99.90;;;;;;5007209;28;20444;-84
2022/10/15 01:17:44;;;;;;;1.00;0.47;;;15.60;99.90;;;;;;4997562;28;20463;-84
2022/10/15 01:20:47;;;;;;;2.70;0.70;;;15.50;99.90;;;;;;4997881;28;20454;-84
2022/10/15 01:23:58;;;;;;;1.53;0.60;;;15.50;99.90;;;;;;4996358;28;20459;-85
2022/10/15 01:26:47;;;;;;;1.40;0.80;;;15.60;99.90;;;;;;5009109;28;20436;-83
2022/10/15 01:29:24;;;;;;;1.00;0.53;;;15.50;99.90;;;;;;5015794;28;20514;-84
2022/10/15 01:32:00;;;;;;;3.00;0.63;;;15.60;99.90;;;;;;4996999;28;20490;-84
2022/10/15 01:34:39;;;;;;;1.40;0.70;;;15.60;99.90;;;;;;4995297;28;21028;-85
2022/10/15 01:37:11;;;;;;;1.13;0.60;;;15.60;99.90;;;;;;4994994;28;20935;-84
2022/10/15 01:39:41;;;;;;;1.57;0.50;;;15.60;99.90;;;;;;4994975;28;20450;-84
2022/10/15 01:42:15;;;;;;;1.10;0.40;;;15.70;99.90;;;;;;4995026;28;20468;-85
2022/10/15 01:44:47;;;;;;;1.10;0.47;;;15.60;99.90;;;;;;4994180;28;20446;-84
2022/10/15 01:47:22;;;;;;;1.00;0.60;;;15.70;99.90;;;;;;4993816;28;20515;-83
2022/10/15 01:49:52;;;;;;;1.50;0.60;;;15.70;99.90;;;;;;4994516;28;20439;-83
2022/10/15 01:52:23;;;;;;;1.00;0.40;;;15.70;99.90;;;;;;5008489;28;20467;-82
2022/10/15 01:54:51;;;;;;;1.40;0.50;;;15.70;99.90;;;;;;5008650;28;20446;-83
2022/10/15 01:57:20;;;;;;;3.13;0.80;;;15.70;99.90;;;;;;5009631;28;20458;-84
2022/10/15 01:59:47;;;;;;;1.10;0.43;;;15.70;99.90;;;;;;4996933;28;20799;-82
2022/10/15 02:02:15;;;;;;;1.87;0.57;;;15.70;99.90;;;;;;4995053;28;20474;-82
2022/10/15 02:04:42;;;;;;;1.00;0.50;;;15.70;99.90;;;;;;4994658;28;20466;-83
2022/10/15 02:07:11;;;;;;;1.87;0.50;;;15.70;99.90;;;;;;5013806;28;20459;-83
2022/10/15 02:09:49;;;;;;;1.50;0.50;;;15.70;99.90;;;;;;4997243;28;20466;-83
2022/10/15 02:12:31;;;;;;;1.57;0.70;;;15.70;99.90;;;;;;4993490;28;20478;-83
2022/10/15 02:15:03;;;;;;;1.40;0.50;;;15.60;99.90;;;;;;4993314;28;20494;-83
2022/10/15 02:17:36;;;;;;;1.90;0.70;;;15.60;99.90;;;;;;4993062;28;20486;-83
2022/10/15 02:20:10;;;;;;;1.30;0.87;;;15.60;99.90;;;;;;4993004;28;20458;-84
2022/10/15 02:22:42;;;;;;;2.13;0.60;;;15.60;99.90;;;;;;4992851;28;20478;-83
2022/10/15 02:25:15;;;;;;;2.00;0.83;;;15.60;99.90;;;;;;4995997;28;20447;-84
2022/10/15 02:27:43;;;;;;;3.77;1.10;;;15.60;99.90;;;;;;4992818;28;20454;-83
2022/10/15 02:30:12;;;;;;;1.50;0.70;;;15.70;99.90;;;;;;4994659;28;20463;-83
2022/10/15 02:32:42;;;;;;;2.40;0.80;;;15.60;99.90;;;;;;5008062;28;20459;-83
2022/10/15 02:35:10;;;;;;;2.67;0.70;;;15.60;99.90;;;;;;4999503;28;20435;-83
2022/10/15 02:37:41;;;;;;;2.07;0.70;;;15.70;99.90;;;;;;4993276;28;20435;-83
2022/10/15 02:40:09;;;;;;;0.93;0.47;;;15.60;99.90;;;;;;5004317;28;20458;-83
2022/10/15 02:42:36;;;;;;;1.50;0.67;;;15.70;99.90;;;;;;4993612;28;20536;-83
2022/10/15 02:45:02;;;;;;;1.70;0.73;;;15.70;99.90;;;;;;4993323;28;20440;-83
2022/10/15 02:47:30;;;;;;;1.20;0.60;;;15.70;99.90;;;;;;4996523;28;20920;-83
2022/10/15 02:49:58;;;;;;;1.00;0.53;;;15.70;99.90;;;;;;5000882;28;20487;-83
2022/10/15 02:52:25;;;;;;;2.10;0.63;;;15.70;99.90;;;;;;4999554;28;20484;-83
2022/10/15 02:54:51;;;;;;;1.30;0.70;;;15.70;99.90;;;;;;4996695;28;20491;-84
2022/10/15 02:57:18;;;;;;;1.20;0.60;;;15.70;99.90;;;;;;4996270;28;20462;-84
2022/10/15 02:59:45;;;;;;;1.27;0.60;;;15.70;99.90;;;;;;4996785;28;20466;-84
2022/10/15 03:02:12;;;;;;;2.80;0.60;;;15.70;99.90;;;;;;4996469;28;20919;-83
2022/10/15 03:04:39;;;;;;;1.20;0.60;;;15.70;99.90;;;;;;4995976;28;20455;-83
2022/10/15 03:07:07;;;;;;;0.80;0.40;;;15.70;99.90;;;;;;4995948;28;20482;-83
2022/10/15 03:09:34;;;;;;;1.83;0.80;;;15.80;99.90;;;;;;4996190;28;20467;-83
2022/10/15 03:12:00;;;;;;;6.07;0.77;;;15.80;99.90;;;;;;4995894;28;20999;-83
2022/10/15 03:14:27;;;;;;;1.93;0.60;;;15.80;99.90;;;;;;4996236;28;20555;-83
2022/10/15 03:16:54;;;;;;;1.20;0.50;;;15.70;99.90;;;;;;4996697;28;20462;-83
2022/10/15 03:19:20;;;;;;;1.00;0.50;;;15.70;99.90;;;;;;4999420;28;20484;-84
2022/10/15 03:21:47;;;;;;;2.73;0.60;;;15.80;99.90;;;;;;5000045;28;20494;-83
2022/10/15 03:24:15;;;;;;;1.17;0.60;;;15.80;99.90;;;;;;4996203;28;20440;-83
2022/10/15 03:26:42;;;;;;;1.17;0.70;;;15.80;99.90;;;;;;4995803;28;20448;-84
2022/10/15 03:29:09;;;;;;;4.27;0.60;;;15.80;99.90;;;;;;4995683;28;20538;-83
2022/10/15 03:31:35;;;;;;;1.47;0.53;;;15.80;99.90;;;;;;4996236;28;20466;-83
2022/10/15 03:34:02;;;;;;;1.03;0.50;;;15.80;99.90;;;;;;4994672;28;20484;-84
2022/10/15 03:36:29;;;;;;;1.33;0.50;;;15.80;99.90;;;;;;4995455;28;20449;-83
2022/10/15 03:38:56;;;;;;;0.80;0.40;;;15.90;99.90;;;;;;4999471;28;20431;-83
2022/10/15 03:41:24;;;;;;;1.27;0.47;;;16.00;99.90;;;;;;5017823;28;20451;-83
2022/10/15 03:43:50;;;;;;;1.27;0.60;;;15.90;99.90;;;;;;5002510;28;20937;-83
2022/10/15 03:46:17;;;;;;;1.97;1.10;;;16.00;99.90;;;;;;4996138;28;20454;-83
2022/10/15 03:48:44;;;;;;;1.10;0.50;;;16.00;99.90;;;;;;4996053;28;20459;-83
2022/10/15 03:51:10;;;;;;;1.50;0.60;;;16.00;99.90;;;;;;4996620;28;20814;-83
2022/10/15 03:53:37;;;;;;;1.40;0.50;;;16.00;99.90;;;;;;4996980;28;20483;-83
2022/10/15 03:56:05;;;;;;;0.93;0.40;;;16.00;99.90;;;;;;4996337;28;20443;-83
2022/10/15 03:58:33;;;;;;;0.93;0.60;;;16.00;99.90;;;;;;5014277;28;20443;-83
2022/10/15 04:01:00;;;;;;;0.90;0.50;;;16.00;99.90;;;;;;5000105;28;20862;-83
2022/10/15 04:03:26;;;;;;;1.17;0.40;;;16.00;99.90;;;;;;5008358;28;20543;-83
2022/10/15 04:05:54;;;;;;;1.10;0.50;;;16.00;99.90;;;;;;4999377;28;20447;-83
2022/10/15 04:08:20;;;;;;;1.43;0.60;;;16.00;99.90;;;;;;4995430;28;20452;-83
2022/10/15 04:10:47;;;;;;;2.07;0.90;;;16.10;99.90;;;;;;4995604;28;20451;-83
2022/10/15 04:13:14;;;;;;;0.90;0.40;;;16.00;99.90;;;;;;4995437;28;20855;-83
2022/10/15 04:15:42;;;;;;;1.10;0.60;;;16.00;99.90;;;;;;4995492;28;20493;-83
2022/10/15 04:18:09;;;;;;;0.90;0.40;;;16.00;99.90;;;;;;4994766;28;20447;-83
2022/10/15 04:20:35;;;;;;;1.10;0.40;;;16.00;99.90;;;;;;4999261;28;20479;-83
2022/10/15 04:23:02;;;;;;;0.93;0.40;;;16.00;99.90;;;;;;5000521;28;20471;-82
2022/10/15 04:25:29;;;;;;;1.87;0.70;;;16.10;99.90;;;;;;4996145;28;20451;-83
2022/10/15 04:27:56;;;;;;;2.10;0.60;;;16.10;99.90;;;;;;4994304;28;20452;-83
2022/10/15 04:30:22;;;;;;;1.20;0.70;;;16.00;99.90;;;;;;4994560;28;20447;-82
2022/10/15 04:32:53;;;;;;;1.50;0.63;;;16.10;99.90;;;;;;5016072;22;20504;-84
2022/10/15 04:35:20;;;;;;;2.60;0.77;;;16.10;99.90;;;;;;5032801;28;20488;-84
2022/10/15 04:37:46;;;;;;;2.20;0.53;;;16.10;99.90;;;;;;5034535;28;20456;-85
2022/10/15 04:40:13;;;;;;;2.27;0.57;;;16.00;99.90;;;;;;5035988;28;20450;-85
2022/10/15 04:42:40;;;;;;;2.10;0.90;;;16.00;99.90;;;;;;5033173;28;21141;-84
2022/10/15 04:45:08;;;;;;;1.90;0.70;;;16.00;99.90;;;;;;5033423;28;20446;-84
2022/10/15 04:47:35;;;;;;;2.53;1.00;;;16.00;99.90;;;;;;5032593;28;20449;-84
2022/10/15 04:50:03;;;;;;;2.63;0.80;;;16.00;99.90;;;;;;5032899;28;20460;-84
2022/10/15 04:52:30;;;;;;;1.93;0.50;;;16.00;99.90;;;;;;5032641;28;20482;-84
2022/10/15 04:54:58;;;;;;;1.10;0.67;;;16.00;99.90;;;;;;5032276;28;20483;-84
2022/10/15 04:57:25;;;;;;;2.03;0.60;;;16.00;99.90;;;;;;5032467;28;20507;-85
2022/10/15 04:59:52;;;;;;;1.00;0.80;;;16.10;99.90;;;;;;5033536;28;20457;-85
2022/10/15 05:02:19;;;;;;;1.30;0.87;;;16.00;99.90;;;;;;5037099;28;20446;-85
2022/10/15 05:04:46;;;;;;;1.70;0.67;;;16.10;99.90;;;;;;5033791;28;20452;-85
2022/10/15 05:07:14;;;;;;;3.47;0.60;;;16.10;99.90;;;;;;5033280;28;20457;-85
2022/10/15 05:09:40;;;;;;;1.77;0.70;;;16.10;99.90;;;;;;5033083;28;20454;-85
2022/10/15 05:12:07;;;;;;;1.00;0.50;;;16.00;99.90;;;;;;5032987;28;20450;-85
2022/10/15 05:14:34;;;;;;;1.00;0.50;;;16.10;99.90;;;;;;5032496;28;20493;-85
2022/10/15 05:17:01;;;;;;;0.80;0.40;;;16.10;99.90;;;;;;5032567;28;20496;-85
2022/10/15 05:19:27;;;;;;;1.43;0.70;;;16.00;99.90;;;;;;5031276;28;20441;-85
2022/10/15 05:21:54;;;;;;;2.30;0.67;;;16.00;99.90;;;;;;5031492;28;20805;-85
2022/10/15 05:24:22;;;;;;;1.00;0.60;;;15.90;99.90;;;;;;5031594;28;20461;-85
2022/10/15 05:26:49;;;;;;;3.20;0.70;;;16.00;99.90;;;;;;5031673;28;20452;-85
2022/10/15 05:29:16;;;;;;;6.50;3.00;;;16.00;99.90;;;;;;5036665;28;20436;-84
2022/10/15 05:31:42;;;;;;;1.97;0.67;;;16.00;99.90;;;;;;5055475;28;20438;-85
2022/10/15 05:34:09;;;;;;;1.43;0.50;;;16.00;99.90;;;;;;5055378;28;20473;-84
2022/10/15 05:36:37;;;;;;;1.87;0.67;;;16.00;99.90;;;;;;5057182;28;20448;-85
2022/10/15 05:39:06;;;;;;;0.97;0.50;;;16.00;99.90;;;;;;5055861;28;20444;-85
2022/10/15 05:41:34;;;;;;;3.40;0.80;;;16.00;99.90;;;;;;5039046;28;20811;-85
2022/10/15 05:44:01;;;;;;;1.10;0.70;;;16.00;99.90;;;;;;5032805;28;20469;-85
2022/10/15 05:46:28;;;;;;;1.07;0.60;;;16.00;99.90;;;;;;5032658;28;20457;-85
2022/10/15 05:48:56;;;;;;;1.93;0.87;;;16.00;99.90;;;;;;5032540;28;20480;-85
2022/10/15 05:51:23;;;;;;;1.73;0.60;;;16.00;99.90;;;;;;5032173;28;20452;-85
2022/10/15 05:53:52;;;;;;;2.00;0.67;;;16.00;99.90;;;;;;5032304;28;20469;-85
2022/10/15 05:56:18;;;;;;;2.60;0.60;;;16.00;99.90;;;;;;5032554;28;20456;-85
2022/10/15 05:58:46;;;;;;;4.07;0.70;;;16.00;99.90;;;;;;5035077;28;20453;-85
2022/10/15 06:01:13;;;;;;;5.80;0.80;;;16.00;99.90;;;;;;5042857;28;20493;-85
2022/10/15 06:03:41;;;;;;;1.20;0.63;;;16.00;99.90;;;;;;5036361;28;20462;-85
2022/10/15 06:06:15;;;;;;;1.00;0.50;;;16.00;99.90;;;;;;5044774;28;20442;-85
2022/10/15 06:08:41;;;;;;;2.13;0.80;;;16.00;99.90;;;;;;5037350;28;20445;-85
2022/10/15 06:11:08;;;;;;;2.37;0.70;;;15.90;99.90;;;;;;5032628;28;20961;-85
2022/10/15 06:13:35;;;;;;;1.40;0.57;;;15.90;99.90;;;;;;5031927;28;20816;-85
2022/10/15 06:16:04;;;;;;;1.87;0.80;;;15.90;99.90;;;;;;5032352;28;20488;-85
2022/10/15 06:18:30;;;;;;;1.10;0.67;;;16.00;99.90;;;;;;5031822;28;20496;-86
2022/10/15 06:20:57;;;;;;;1.70;1.37;;;16.00;99.90;;;;;;5032719;28;20461;-85
2022/10/15 06:23:24;;;;;;;2.13;0.80;;;16.10;99.90;;;;;;5035561;28;20994;-85
2022/10/15 06:25:51;;;;;;;6.40;1.10;;;16.00;99.90;;;;;;5035965;28;20965;-85
2022/10/15 06:28:17;;;;;;;4.17;1.47;;;16.00;99.90;;;;;;5035893;28;20449;-85
2022/10/15 06:30:44;;;;;;;4.63;0.80;;;16.00;99.90;;;;;;5035615;28;20457;-85
2022/10/15 06:33:14;;;;;;;1.30;0.73;;;16.00;99.90;;;;;;5035992;28;20480;-85
2022/10/15 06:35:41;;;;;;;2.20;1.07;;;16.00;99.90;;;;;;5035904;28;20520;-85
2022/10/15 06:38:08;;;;;;;2.90;1.23;;;16.10;99.90;;;;;;5035888;28;20453;-85
2022/10/15 06:40:35;;;;;;;1.80;1.20;;;16.00;99.90;;;;;;5035837;28;20449;-84
2022/10/15 06:43:06;;;;;;;3.23;1.43;;;16.10;99.90;;;;;;5045279;28;20458;-85
2022/10/15 06:45:35;;;;;;;1.63;1.03;;;16.10;99.90;;;;;;5051622;28;20445;-84
2022/10/15 06:48:02;;;;;;;2.50;1.60;;;16.10;99.90;;;;;;5056269;28;20446;-85
2022/10/15 06:50:30;;;;;;;1.17;0.87;;;16.10;99.90;;;;;;5046591;28;20444;-85
2022/10/15 06:52:57;;;;;;;1.50;0.80;;;16.10;99.90;;;;;;5051938;28;20468;-85
2022/10/15 06:55:24;;;;;;;2.60;0.77;;;16.10;99.90;;;;;;5037792;28;21008;-85
2022/10/15 06:57:50;;;;;;;3.50;1.90;;;16.10;99.90;;;;;;5037352;28;20480;-86
2022/10/15 07:00:17;;;;;;;2.87;1.80;;;16.10;99.90;;;;;;5045720;28;20452;-87
2022/10/15 07:02:44;;;;;;;2.80;0.97;;;16.10;99.90;;;;;;5038267;28;20556;-86
2022/10/15 07:05:11;;;;;;;2.67;2.30;;;16.10;99.90;;;;;;5038755;28;20445;-85
2022/10/15 07:07:39;;;;;;;1.20;0.93;;;16.10;99.90;;;;;;5035566;28;20449;-85
2022/10/15 07:10:07;;;;;;;1.67;1.10;;;16.10;99.90;;;;;;5031939;28;20849;-85
2022/10/15 07:12:36;;;;;;;1.23;0.80;;;16.10;99.90;;;;;;5029503;28;20462;-85
2022/10/15 07:15:06;;;;;;;2.63;0.80;;;16.10;99.90;;;;;;5035545;28;20482;-85
2022/10/15 07:17:34;;;;;;;2.80;1.17;;;16.20;99.90;;;;;;5048213;28;20457;-85
2022/10/15 07:20:00;;;;;;;1.40;0.70;;;16.20;99.90;;;;;;5045423;28;20439;-86
2022/10/15 07:22:27;;;;;;;4.30;1.13;;;16.20;99.90;;;;;;5034851;28;20938;-84
2022/10/15 07:24:55;;;;;;;3.40;1.23;;;16.20;99.90;;;;;;5025407;28;20438;-87
2022/10/15 07:27:22;;;;;;;3.40;1.23;;;16.20;99.90;;;;;;5041465;28;20433;-87
2022/10/15 07:29:48;;;;;;;3.00;1.30;;;16.30;99.90;;;;;;5047196;28;20431;-85
2022/10/15 07:32:15;;;;;;;3.60;1.30;;;16.30;99.90;;;;;;5033260;28;20529;-85
2022/10/15 07:34:42;;;;;;;6.27;1.23;;;16.30;99.90;;;;;;5019860;28;20483;-85
2022/10/15 07:37:08;;;;;;;2.07;1.27;;;16.40;99.90;;;;;;5019220;28;20824;-84
2022/10/15 07:39:35;;;;;;;3.27;1.40;;;16.50;99.90;;;;;;5019348;28;20442;-85
2022/10/15 07:42:03;;;;;;;6.40;5.20;;;16.60;99.90;;;;;;5027018;28;21278;-85
2022/10/15 07:44:30;;;;;;;2.33;1.37;;;16.70;99.90;;;;;;5034068;28;20465;-84
2022/10/15 07:46:57;;;;;;;2.40;1.10;;;16.80;99.90;;;;;;5033009;28;20446;-84
2022/10/15 07:49:23;;;;;;;6.13;1.00;;;17.00;99.90;;;;;;5034573;28;20441;-84
2022/10/15 07:51:50;;;;;;;4.73;1.50;;;17.10;99.90;;;;;;5032478;28;20453;-84
2022/10/15 07:54:17;;;;;;;2.50;1.43;;;17.20;99.90;;;;;;5030971;28;20467;-84
2022/10/15 07:56:44;;;;;;;2.73;1.30;;;17.20;99.90;;;;;;5014790;28;20451;-84
2022/10/15 07:59:12;;;;;;;1.90;1.00;;;17.20;99.90;;;;;;5014898;28;20457;-83
2022/10/15 08:01:39;;;;;;;2.33;1.30;;;17.20;99.90;;;;;;5014302;28;20489;-84
2022/10/15 08:04:06;;;;;;;1.80;1.30;;;17.20;99.90;;;;;;5013898;28;20458;-84
2022/10/15 08:06:33;;;;;;;1.90;1.00;;;17.10;99.90;;;;;;5014625;28;20446;-84
2022/10/15 08:08:59;;;;;;;1.40;0.90;;;17.10;99.90;;;;;;5014216;28;20481;-84
2022/10/15 08:11:26;;;;;;;1.57;0.90;;;17.10;99.90;;;;;;5015616;28;20850;-83
2022/10/15 08:13:53;;;;;;;2.83;1.00;;;17.10;99.90;;;;;;5014787;28;20478;-85
2022/10/15 08:16:21;;;;;;;2.17;1.27;;;17.20;99.90;;;;;;5014475;28;20486;-85
2022/10/15 08:18:48;;;;;;;2.33;1.20;;;17.20;99.90;;;;;;5013944;28;20485;-84
2022/10/15 08:21:15;;;;;;;1.73;1.00;;;17.20;99.90;;;;;;5024487;28;20454;-85
2022/10/15 08:23:41;;;;;;;1.57;1.00;;;17.20;99.90;;;;;;5030684;28;20486;-84
2022/10/15 08:26:08;;;;;;;4.20;0.90;;;17.10;99.90;;;;;;5017229;28;20443;-82
2022/10/15 08:28:36;;;;;;;3.90;1.40;;;17.00;99.90;;;;;;5014808;28;20449;-84
2022/10/15 08:31:03;;;;;;;1.50;1.10;;;17.00;99.90;;;;;;5015476;28;20829;-85
2022/10/15 08:33:31;;;;;;;2.90;1.20;;;17.10;99.90;;;;;;5013532;28;20483;-84
2022/10/15 08:35:58;;;;;;;5.27;1.80;;;17.20;99.90;;;;;;5014449;28;20478;-85
2022/10/15 08:38:25;;;;;;;2.23;1.17;;;17.30;99.90;;;;;;5016370;28;20458;-85
2022/10/15 08:40:54;;;;;;;1.80;1.00;;;17.50;99.90;;;;;;5014947;28;20461;-84
2022/10/15 08:43:25;;;;;;;2.63;1.33;;;17.60;99.90;;;;;;5018169;28;20466;-85
2022/10/15 08:45:56;;;;;;;4.63;1.50;;;17.90;99.90;;;;;;5016163;28;20446;-85
2022/10/15 08:48:30;;;;;;;2.23;0.90;;;18.00;99.90;;;;;;5019880;28;20434;-84
2022/10/15 08:51:03;;;;;;;2.37;1.20;;;18.10;99.90;;;;;;5035766;28;20449;-83
2022/10/15 08:53:33;;;;;;;4.50;1.37;;;18.00;99.90;;;;;;5021501;28;20470;-84
2022/10/15 08:56:05;;;;;;;3.10;1.30;;;18.00;99.90;;;;;;5013763;28;20857;-85
2022/10/15 08:58:45;;;;;;;2.50;1.20;;;18.00;99.90;;;;;;5013861;28;20474;-85
2022/10/15 09:01:18;;;;;;;3.37;1.33;;;17.90;99.90;;;;;;5022586;28;20520;-84
2022/10/15 09:03:54;;;;;;;5.70;3.40;;;17.80;99.90;;;;;;5028874;28;20459;-84
2022/10/15 09:06:26;;;;;;;4.60;1.50;;;17.90;99.90;;;;;;5029742;28;20442;-84
2022/10/15 09:09:01;;;;;;;4.03;1.77;;;17.90;99.90;;;;;;5025098;28;20952;-84
2022/10/15 09:11:39;;;;;;;1.37;1.13;;;17.90;99.90;;;;;;5025521;28;20434;-83
2022/10/15 09:14:11;;;;;;;9.90;2.70;;;17.90;99.90;;;;;;5032775;28;20785;-84
2022/10/15 09:16:39;;;;;;;3.83;1.10;;;18.00;99.90;;;;;;5030927;28;20478;-84
2022/10/15 09:19:14;;;;;;;3.90;1.40;;;18.00;99.90;;;;;;5018938;28;20451;-84
2022/10/15 09:21:42;;;;;;;3.27;1.63;;;18.10;99.90;;;;;;5031253;28;20536;-84
2022/10/15 09:24:12;;;;;;;1.47;1.13;;;18.10;99.90;;;;;;5028714;28;20506;-84
2022/10/15 09:26:49;;;;;;;2.00;1.10;;;18.10;99.90;;;;;;5013336;28;20450;-84
2022/10/15 09:29:24;;;;;;;1.97;1.17;;;18.20;99.90;;;;;;5012701;28;20461;-85
2022/10/15 09:32:00;;;;;;;2.43;1.20;;;18.40;99.90;;;;;;5012628;28;20442;-85
2022/10/15 09:34:32;;;;;;;3.30;1.03;;;18.40;99.90;;;;;;5012843;28;20473;-86
2022/10/15 09:37:06;;;;;;;2.50;1.17;;;18.40;99.90;;;;;;5013299;28;20486;-85
2022/10/15 09:39:43;;;;;;;1.40;0.97;;;18.40;99.90;;;;;;5012973;28;20968;-88
2022/10/15 09:42:20;;;;;;;1.90;0.87;;;18.40;99.90;;;;;;5013277;28;20449;-86
2022/10/15 09:44:47;;;;;;;2.97;1.67;;;18.40;99.90;;;;;;5013132;28;20519;-86
2022/10/15 09:47:16;;;;;;;1.83;1.00;;;18.40;99.90;;;;;;5012443;28;20438;-87
2022/10/15 09:49:43;;;;;;;1.83;1.10;;;18.60;99.90;;;;;;5017934;28;20817;-85
2022/10/15 09:52:19;;;;;;;2.50;0.90;;;18.70;99.90;;;;;;5027961;28;20446;-84
2022/10/15 09:54:57;;;;;;;4.23;1.20;;;18.90;99.90;;;;;;5026466;28;20447;-85
2022/10/15 09:57:25;;;;;;;1.77;1.10;;;19.20;99.90;;;;;;5024753;28;20442;-84
2022/10/15 09:59:55;;;;;;;1.70;1.10;;;19.50;99.90;;;;;;5023319;28;20833;-84
2022/10/15 10:02:24;;;;;;;1.80;0.90;;;20.00;99.90;;;;;;5018918;28;20453;-84
2022/10/15 10:04:51;;;;;;;1.30;0.80;;;20.50;99.90;;;;;;5029767;28;20453;-85
2022/10/15 10:07:34;;;;;;;1.40;1.00;;;21.10;99.90;;;;;;5016499;28;20442;-84
2022/10/15 10:10:04;;;;;;;4.07;0.80;;;21.20;99.90;;;;;;5028490;28;20960;-84
2022/10/15 10:12:33;;;;;;;1.60;0.70;;;21.20;99.90;;;;;;5038372;28;20460;-84
2022/10/15 10:15:04;;;;;;;1.43;1.00;;;21.50;99.90;;;;;;5037460;28;20933;-84
2022/10/15 10:17:31;;;;;;;1.40;0.97;;;21.30;99.90;;;;;;5036509;28;20442;-84
2022/10/15 10:20:14;;;;;;;3.53;1.30;;;21.20;99.90;;;;;;5037191;28;20512;-84
2022/10/15 10:22:47;;;;;;;1.80;0.80;;;21.10;99.90;;;;;;5036848;28;20461;-84
2022/10/15 10:25:30;;;;;;;1.10;0.70;;;21.30;99.90;;;;;;5037224;28;20445;-84
2022/10/15 10:28:13;;;;;;;2.27;1.07;;;21.80;99.90;;;;;;5037681;28;20437;-85
2022/10/15 10:30:49;;;;;;;1.60;0.70;;;23.00;99.90;;;;;;5039394;28;20455;-84
2022/10/15 10:33:24;;;;;;;2.27;0.90;;;23.60;99.90;;;;;;5036293;28;20477;-84
2022/10/15 10:35:51;;;;;;;1.40;0.80;;;25.40;99.90;;;;;;5019152;28;20475;-85
2022/10/15 10:38:22;;;;;;;1.60;0.80;;;27.20;99.50;;;;;;5035532;28;20454;-85
2022/10/15 10:40:54;;;;;;;1.60;1.00;;;28.70;94.20;;;;;;5035936;28;20616;-85
2022/10/15 10:43:24;;;;;;;5.53;1.53;;;29.00;92.60;;;;;;5039001;28;20477;-84
2022/10/15 10:45:58;;;;;;;1.20;0.80;;;30.80;90.40;;;;;;5054500;28;20496;-85
2022/10/15 10:48:28;;;;;;;1.93;0.80;;;32.20;82.20;;;;;;5037493;28;20453;-85
2022/10/15 10:51:07;;;;;;;1.70;1.00;;;32.30;79.40;;;;;;5035982;28;20438;-83
2022/10/15 10:53:48;;;;;;;1.57;0.70;;;30.90;74.70;;;;;;5042980;28;20464;-85
2022/10/15 10:56:18;;;;;;;1.20;0.70;;;31.80;76.70;;;;;;5050901;28;20500;-86
2022/10/15 10:58:44;;;;;;;1.33;0.50;;;33.10;74.40;;;;;;5034712;28;20447;-86
2022/10/15 11:01:13;;;;;;;1.97;0.80;;;31.10;69.80;;;;;;5026868;28;20435;-85
2022/10/15 11:03:42;;;;;;;1.70;0.80;;;29.00;79.20;;;;;;5025384;28;20462;-86
2022/10/15 11:06:42;;;;;;;1.50;0.97;;;27.60;85.30;;;;;;5025607;28;20446;-86
2022/10/15 11:09:24;;;;;;;1.93;0.80;;;26.40;87.10;;;;;;5022298;28;20931;-86
2022/10/15 11:12:04;;;;;;;1.17;0.70;;;25.40;91.50;;;;;;5028584;28;20445;-86
2022/10/15 11:14:41;;;;;;;2.03;0.70;;;25.20;93.20;;;;;;5022502;28;20536;-87
2022/10/15 11:17:17;;;;;;;1.73;1.13;;;25.80;91.90;;;;;;5040570;28;20498;-87
2022/10/15 11:19:49;;;;;;;1.60;0.80;;;27.20;90.20;;;;;;5026849;28;20431;-87
2022/10/15 11:22:33;;;;;;;2.53;1.63;;;28.00;88.10;;;;;;5020161;28;20459;-86
2022/10/15 11:25:11;;;;;;;1.63;1.03;;;28.50;87.00;;;;;;5017842;28;20438;-83
2022/10/15 11:27:53;;;;;;;1.70;0.90;;;29.20;80.60;;;;;;5021986;28;20436;-86
2022/10/15 11:30:36;;;;;;;4.33;1.00;;;27.00;83.20;;;;;;5025963;28;20443;-86
2022/10/15 11:33:15;;;;;;;2.80;0.90;;;25.50;87.80;;;;;;5026520;28;20480;-86
2022/10/15 11:35:50;;;;;;;1.73;0.87;;;26.20;89.80;;;;;;5035507;28;21200;-86
2022/10/15 11:38:23;;;;;;;3.23;1.10;;;27.50;85.50;;;;;;5032615;28;20448;-86
2022/10/15 11:41:04;;;;;;;2.30;1.10;;;29.30;82.80;;;;;;5050981;28;20426;-84
2022/10/15 11:43:54;;;;;;;1.77;1.03;;;29.40;79.50;;;;;;5039919;28;20506;-85
2022/10/15 11:46:26;;;;;;;1.50;1.20;;;27.30;80.40;;;;;;5032013;28;20427;-85
2022/10/15 11:49:10;;;;;;;4.20;1.00;;;25.20;87.60;;;;;;5022899;28;20447;-85
2022/10/15 11:52:05;;;;;;;1.90;0.97;;;24.00;90.90;;;;;;5016050;28;20456;-86
2022/10/15 11:54:37;;;;;;;3.67;1.00;;;23.20;93.30;;;;;;5021748;28;20467;-84
2022/10/15 11:57:11;;;;;;;2.97;0.90;;;23.00;93.90;;;;;;5021678;28;20487;-85
2022/10/15 11:59:46;;;;;;;4.07;1.10;;;22.60;93.90;;;;;;5025243;28;20442;-85
2022/10/15 12:02:17;;;;;;;16.20;1.53;;;22.50;95.70;;;;;;5023074;28;20450;-85
2022/10/15 12:04:48;;;;;;;2.10;1.00;;;23.50;95.50;;;;;;5028945;28;20442;-84
2022/10/15 12:07:19;;;;;;;4.87;1.03;;;24.30;92.60;;;;;;5028650;28;20527;-85
2022/10/15 12:09:48;;;;;;;1.70;1.03;;;24.20;91.50;;;;;;5021194;28;20444;-85
2022/10/15 12:12:28;;;;;;;2.03;0.87;;;24.00;92.30;;;;;;5019054;28;20451;-85
2022/10/15 12:15:07;;;;;;;1.83;1.13;;;24.00;92.30;;;;;;5025825;28;20478;-85
2022/10/15 12:17:40;;;;;;;1.20;0.67;;;23.60;93.10;;;;;;5021957;28;20505;-85
2022/10/15 12:20:12;;;;;;;2.03;1.10;;;22.70;93.40;;;;;;5022446;28;21026;-85
2022/10/15 12:22:53;;;;;;;1.90;1.60;;;22.10;95.30;;;;;;5023117;28;20462;-85
2022/10/15 12:25:45;;;;;;;1.80;0.97;;;22.00;96.80;;;;;;5026535;28;20449;-85
2022/10/15 12:28:26;;;;;;;2.83;1.00;;;21.90;96.70;;;;;;5024356;28;20445;-85
2022/10/15 12:31:01;;;;;;;1.67;0.97;;;21.40;96.80;;;;;;5024774;28;20446;-85
2022/10/15 12:33:35;;;;;;;2.43;0.90;;;21.20;97.70;;;;;;5023848;28;20469;-85
2022/10/15 12:36:08;;;;;;;3.40;1.13;;;20.90;98.30;;;;;;5023303;28;20494;-85
2022/10/15 12:38:36;;;;;;;1.50;1.00;;;20.70;99.80;;;;;;5020710;28;20858;-85
2022/10/15 12:41:06;;;;;;;1.73;1.00;;;20.60;99.90;;;;;;5018196;28;21173;-85
2022/10/15 12:43:38;;;;;;;1.60;0.90;;;20.50;99.90;;;;;;5032270;28;20719;-85
2022/10/15 12:46:06;;;;;;;3.10;0.93;;;20.50;99.90;;;;;;5043552;28;20434;-85
2022/10/15 12:48:39;;;;;;;2.00;0.73;;;20.40;99.90;;;;;;5017031;28;20453;-85
2022/10/15 12:51:39;;;;;;;3.10;1.33;;;20.40;99.90;;;;;;5017254;28;20450;-85
2022/10/15 12:54:32;;;;;;;2.40;0.87;;;20.40;99.90;;;;;;5024292;28;20815;-85
2022/10/15 12:56:59;;;;;;;1.97;0.87;;;20.40;99.90;;;;;;5022678;28;20823;-85
2022/10/15 12:59:49;;;;;;;1.80;1.00;;;20.40;99.90;;;;;;5028829;28;20473;-85
2022/10/15 13:02:36;;;;;;;2.33;1.43;;;20.50;99.90;;;;;;5050614;28;20456;-85
2022/10/15 13:05:05;;;;;;;3.30;0.90;;;20.30;99.90;;;;;;5037156;28;20449;-84